createdAt,value
2022-08-18T00:01:56.769Z,24.00
2022-08-18T00:04:35.410Z,24.00
2022-08-18T00:07:06.411Z,24.00
2022-08-18T00:09:36.711Z,23.90
2022-08-18T00:12:06.940Z,23.90
2022-08-18T00:14:55.992Z,23.90
2022-08-18T00:17:26.949Z,23.90
2022-08-18T00:19:56.341Z,23.90
2022-08-18T00:22:25.795Z,23.90
2022-08-18T00:24:55.144Z,23.90
2022-08-18T00:27:28.237Z,23.90
2022-08-18T00:29:58.761Z,23.90
2022-08-18T00:32:31.501Z,23.90
2022-08-18T00:35:05.873Z,24.00
2022-08-18T00:37:34.701Z,24.00
2022-08-18T00:40:04.199Z,24.00
2022-08-18T00:42:33.961Z,24.00
2022-08-18T00:45:03.811Z,23.90
2022-08-18T00:47:42.711Z,23.90
2022-08-18T00:50:14.984Z,23.80
2022-08-18T00:52:46.573Z,23.80
2022-08-18T00:55:15.401Z,23.70
2022-08-18T00:57:44.690Z,23.70
2022-08-18T01:00:14.930Z,23.60
2022-08-18T01:02:48.021Z,23.40
2022-08-18T01:05:21.421Z,23.40
2022-08-18T01:07:50.431Z,23.40
2022-08-18T01:10:20.759Z,23.30
2022-08-18T01:12:50.962Z,23.20
2022-08-18T01:15:28.173Z,23.10
2022-08-18T01:18:17.704Z,23.10
2022-08-18T01:21:08.492Z,23.10
2022-08-18T01:23:38.390Z,23.10
2022-08-18T01:26:06.709Z,23.10
2022-08-18T01:28:36.122Z,23.10
2022-08-18T01:31:05.000Z,23.10
2022-08-18T01:33:34.572Z,23.10
2022-08-18T01:36:04.441Z,23.00
2022-08-18T01:38:33.234Z,23.00
2022-08-18T01:41:26.384Z,23.00
2022-08-18T01:43:52.056Z,23.00
2022-08-18T01:46:20.491Z,23.10
2022-08-18T01:48:49.791Z,23.00
2022-08-18T01:51:20.051Z,22.70
2022-08-18T01:53:48.902Z,22.90
2022-08-18T01:56:19.019Z,23.10
2022-08-18T01:58:48.014Z,23.10
2022-08-18T02:01:16.952Z,23.10
2022-08-18T02:03:46.970Z,23.10
2022-08-18T02:06:18.959Z,23.00
2022-08-18T02:09:00.912Z,23.00
2022-08-18T02:11:30.833Z,23.00
2022-08-18T02:13:59.212Z,23.00
2022-08-18T02:16:27.704Z,22.90
2022-08-18T02:18:56.352Z,22.90
2022-08-18T02:21:24.760Z,22.90
2022-08-18T02:23:54.222Z,22.80
2022-08-18T02:26:23.640Z,22.70
2022-08-18T02:28:53.930Z,22.70
2022-08-18T02:31:23.273Z,22.60
2022-08-18T02:33:52.733Z,22.60
2022-08-18T02:36:23.982Z,22.60
2022-08-18T02:38:56.829Z,22.60
2022-08-18T02:41:29.803Z,22.60
2022-08-18T02:44:00.254Z,22.50
2022-08-18T02:46:31.160Z,22.40
2022-08-18T02:49:00.704Z,22.40
2022-08-18T02:51:29.470Z,22.40
2022-08-18T02:53:59.436Z,22.40
2022-08-18T02:56:40.158Z,22.40
2022-08-18T02:59:12.351Z,22.40
2022-08-18T03:01:42.905Z,22.20
2022-08-18T03:04:12.662Z,22.30
2022-08-18T03:06:41.690Z,22.20
2022-08-18T03:09:11.870Z,22.20
2022-08-18T03:11:40.499Z,22.30
2022-08-18T03:14:13.809Z,22.20
2022-08-18T03:16:52.752Z,22.10
2022-08-18T03:19:26.198Z,22.00
2022-08-18T03:21:58.049Z,22.10
2022-08-18T03:24:26.748Z,22.00
2022-08-18T03:26:55.898Z,22.00
2022-08-18T03:29:31.351Z,21.90
2022-08-18T03:32:01.149Z,21.80
2022-08-18T03:34:29.779Z,21.80
2022-08-18T03:36:58.269Z,21.80
2022-08-18T03:39:28.004Z,21.80
2022-08-18T03:42:01.083Z,21.90
2022-08-18T03:44:32.922Z,22.00
2022-08-18T03:47:03.265Z,22.00
2022-08-18T03:49:32.569Z,22.00
2022-08-18T03:52:01.629Z,22.00
2022-08-18T03:54:32.510Z,21.90
2022-08-18T03:57:01.701Z,21.90
2022-08-18T03:59:32.388Z,21.90
2022-08-18T04:02:00.994Z,21.90
2022-08-18T04:04:29.620Z,22.00
2022-08-18T04:06:59.590Z,22.00
2022-08-18T04:09:29.045Z,22.00
2022-08-18T04:11:57.741Z,22.00
2022-08-18T04:14:29.104Z,21.90
2022-08-18T04:16:59.145Z,22.10
2022-08-18T04:19:28.101Z,22.10
2022-08-18T04:21:57.859Z,22.10
2022-08-18T04:24:28.071Z,22.10
2022-08-18T04:26:58.460Z,22.10
2022-08-18T04:29:26.850Z,22.10
2022-08-18T04:31:55.479Z,22.30
2022-08-18T04:34:25.491Z,22.20
2022-08-18T04:36:54.790Z,22.10
2022-08-18T04:39:23.369Z,22.10
2022-08-18T04:41:51.990Z,22.10
2022-08-18T04:44:21.849Z,22.10
2022-08-18T04:46:52.075Z,21.90
2022-08-18T04:49:20.989Z,22.00
2022-08-18T04:52:36.715Z,22.20
2022-08-18T04:55:11.276Z,22.30
2022-08-18T04:57:39.791Z,22.40
2022-08-18T05:00:09.042Z,22.30
2022-08-18T05:02:37.469Z,22.20
2022-08-18T05:05:06.149Z,22.30
2022-08-18T05:07:35.978Z,22.30
2022-08-18T05:10:05.659Z,22.20
2022-08-18T05:12:34.071Z,22.10
2022-08-18T05:15:02.684Z,22.20
2022-08-18T05:17:31.404Z,22.20
2022-08-18T05:20:02.022Z,22.40
2022-08-18T05:22:31.747Z,22.50
2022-08-18T05:25:04.130Z,22.60
2022-08-18T05:27:34.357Z,22.60
2022-08-18T05:30:02.860Z,22.60
2022-08-18T05:32:47.232Z,22.60
2022-08-18T05:35:19.452Z,22.60
2022-08-18T05:37:53.598Z,22.70
2022-08-18T05:40:25.001Z,22.70
2022-08-18T05:42:53.599Z,22.60
2022-08-18T05:45:22.318Z,22.60
2022-08-18T05:47:50.890Z,22.70
2022-08-18T05:50:21.311Z,22.60
2022-08-18T05:52:53.160Z,22.70
2022-08-18T05:55:47.959Z,22.90
2022-08-18T05:58:19.201Z,23.00
2022-08-18T06:00:57.473Z,23.00
2022-08-18T06:03:28.910Z,23.20
2022-08-18T06:06:01.536Z,23.40
2022-08-18T06:08:34.152Z,23.50
2022-08-18T06:11:04.249Z,23.70
2022-08-18T06:13:33.848Z,23.70
2022-08-18T06:16:06.928Z,23.80
2022-08-18T06:18:43.219Z,23.80
2022-08-18T06:21:17.225Z,24.00
2022-08-18T06:23:50.600Z,24.10
2022-08-18T06:26:21.959Z,24.10
2022-08-18T06:28:55.469Z,24.10
2022-08-18T06:31:29.748Z,24.20
2022-08-18T06:34:03.178Z,24.10
2022-08-18T06:36:38.963Z,23.90
2022-08-18T06:39:13.128Z,23.90
2022-08-18T06:41:44.263Z,24.10
2022-08-18T06:44:13.691Z,24.20
2022-08-18T06:46:44.289Z,24.20
2022-08-18T06:49:14.342Z,24.20
2022-08-18T06:51:43.169Z,24.20
2022-08-18T06:54:28.261Z,24.40
2022-08-18T06:56:59.141Z,24.40
2022-08-18T06:59:29.590Z,24.30
2022-08-18T07:02:01.788Z,24.30
2022-08-18T07:04:37.760Z,24.30
2022-08-18T07:07:17.520Z,24.40
2022-08-18T07:09:46.090Z,24.50
2022-08-18T07:12:20.589Z,24.60
2022-08-18T07:14:50.648Z,24.60
2022-08-18T07:17:22.636Z,24.60
2022-08-18T07:20:19.007Z,24.60
2022-08-18T07:22:54.434Z,24.70
2022-08-18T07:25:24.785Z,24.60
2022-08-18T07:27:56.439Z,24.60
2022-08-18T07:30:30.197Z,24.50
2022-08-18T07:33:01.386Z,24.60
2022-08-18T07:35:32.596Z,24.50
2022-08-18T07:38:18.792Z,24.50
2022-08-18T07:40:54.756Z,24.40
2022-08-18T07:43:28.526Z,24.60
2022-08-18T07:45:59.046Z,24.60
2022-08-18T07:48:40.264Z,24.70
2022-08-18T07:51:17.295Z,24.70
2022-08-18T07:53:55.592Z,24.60
2022-08-18T07:56:38.190Z,24.60
2022-08-18T07:59:13.666Z,24.70
2022-08-18T08:01:45.467Z,24.80
2022-08-18T08:04:25.665Z,24.80
2022-08-18T08:07:23.028Z,24.80
2022-08-18T08:09:51.788Z,24.80
2022-08-18T08:12:25.385Z,24.80
2022-08-18T08:15:02.228Z,24.80
2022-08-18T08:17:34.905Z,24.80
2022-08-18T08:20:10.207Z,24.80
2022-08-18T08:22:40.258Z,24.90
2022-08-18T08:25:35.138Z,24.90
2022-08-18T08:28:10.425Z,25.00
2022-08-18T08:30:45.486Z,25.00
2022-08-18T08:33:18.636Z,25.20
2022-08-18T08:35:50.656Z,25.30
2022-08-18T08:38:40.095Z,25.30
2022-08-18T08:41:13.432Z,25.50
2022-08-18T08:43:44.117Z,25.40
2022-08-18T08:46:17.175Z,25.30
2022-08-18T08:48:47.008Z,25.40
2022-08-18T08:51:26.826Z,25.50
2022-08-18T08:54:03.556Z,25.40
2022-08-18T08:56:35.176Z,25.50
2022-08-18T08:59:06.361Z,25.70
2022-08-18T09:01:38.838Z,25.90
2022-08-18T09:04:16.518Z,26.00
2022-08-18T09:06:52.049Z,26.10
2022-08-18T09:09:30.106Z,25.90
2022-08-18T09:12:13.846Z,26.00
2022-08-18T09:14:57.889Z,26.00
2022-08-18T09:17:41.066Z,25.80
2022-08-18T09:20:30.026Z,26.20
2022-08-18T09:23:02.197Z,26.20
2022-08-18T09:25:32.599Z,26.10
2022-08-18T09:28:12.556Z,26.40
2022-08-18T09:30:51.257Z,26.20
2022-08-18T09:33:24.813Z,26.20
2022-08-18T09:36:06.219Z,26.20
2022-08-18T09:39:05.593Z,26.30
2022-08-18T09:41:36.751Z,26.20
2022-08-18T09:44:21.155Z,26.20
2022-08-18T09:47:01.423Z,26.20
2022-08-18T09:49:51.234Z,26.20
2022-08-18T09:52:38.559Z,26.10
2022-08-18T09:55:28.952Z,26.30
2022-08-18T09:58:12.282Z,26.20
2022-08-18T10:00:41.371Z,26.60
2022-08-18T10:03:31.015Z,26.70
2022-08-18T10:06:07.321Z,26.60
2022-08-18T10:09:18.077Z,26.60
2022-08-18T10:12:15.743Z,26.60
2022-08-18T10:15:02.780Z,26.70
2022-08-18T10:17:42.009Z,26.70
2022-08-18T10:20:26.119Z,26.60
2022-08-18T10:22:57.417Z,26.80
2022-08-18T10:25:35.112Z,26.70
2022-08-18T10:28:05.694Z,26.70
2022-08-18T10:31:08.802Z,26.70
2022-08-18T10:34:24.708Z,26.70
2022-08-18T10:37:13.590Z,26.60
2022-08-18T10:40:06.301Z,26.60
2022-08-18T10:42:39.251Z,26.70
2022-08-18T10:45:10.135Z,26.80
2022-08-18T10:47:39.227Z,26.80
2022-08-18T10:50:09.609Z,26.70
2022-08-18T10:52:58.863Z,26.70
2022-08-18T10:55:48.300Z,26.70
2022-08-18T10:58:32.051Z,26.50
2022-08-18T11:01:10.711Z,26.40
2022-08-18T11:03:51.289Z,26.30
2022-08-18T11:06:24.993Z,26.30
2022-08-18T11:08:57.789Z,26.20
2022-08-18T11:11:38.034Z,26.20
2022-08-18T11:14:15.799Z,26.10
2022-08-18T11:16:49.199Z,26.20
2022-08-18T11:19:18.241Z,26.00
2022-08-18T11:21:51.193Z,26.00
2022-08-18T11:24:22.081Z,26.00
2022-08-18T11:29:43.320Z,26.10
2022-08-18T11:32:17.998Z,26.10
2022-08-18T11:34:53.240Z,26.00
2022-08-18T11:37:27.244Z,26.10
2022-08-18T11:39:58.334Z,26.00
2022-08-18T11:42:32.419Z,25.90
2022-08-18T11:45:08.471Z,25.90
2022-08-18T11:47:39.309Z,25.90
2022-08-18T11:50:11.927Z,26.00
2022-08-18T11:52:53.401Z,25.90
2022-08-18T11:55:32.081Z,25.80
2022-08-18T11:58:02.810Z,26.00
2022-08-18T12:03:33.329Z,26.00
2022-08-18T12:09:01.881Z,25.90
2022-08-18T12:11:32.672Z,26.00
2022-08-18T12:14:31.921Z,25.80
2022-08-18T12:16:54.141Z,25.90
2022-08-18T12:19:23.443Z,26.00
2022-08-18T12:21:54.549Z,26.00
2022-08-18T12:24:26.205Z,25.90
2022-08-18T12:27:00.809Z,26.00
2022-08-18T12:29:36.700Z,26.00
2022-08-18T12:32:18.221Z,26.00
2022-08-18T12:35:08.972Z,25.90
2022-08-18T12:40:27.528Z,25.80
2022-08-18T12:42:56.927Z,25.70
2022-08-18T12:45:27.317Z,25.60
2022-08-18T12:47:57.509Z,25.30
2022-08-18T12:50:31.820Z,25.20
2022-08-18T12:53:03.598Z,25.10
2022-08-18T12:55:35.217Z,25.00
2022-08-18T12:58:06.657Z,24.90
2022-08-18T13:00:36.452Z,24.70
2022-08-18T13:03:07.299Z,24.70
2022-08-18T13:05:37.489Z,24.50
2022-08-18T13:08:06.557Z,24.40
2022-08-18T13:10:46.240Z,24.40
2022-08-18T13:13:16.157Z,24.20
2022-08-18T13:15:58.667Z,24.20
2022-08-18T13:18:31.418Z,24.00
2022-08-18T13:20:59.897Z,23.90
2022-08-18T13:23:28.668Z,23.90
2022-08-18T13:25:59.382Z,23.70
2022-08-18T13:28:35.874Z,23.70
2022-08-18T13:31:18.498Z,23.60
2022-08-18T13:33:56.787Z,23.60
2022-08-18T13:36:28.871Z,23.60
2022-08-18T13:38:57.638Z,23.60
2022-08-18T13:41:33.917Z,23.60
2022-08-18T13:44:03.188Z,23.70
2022-08-18T13:46:31.986Z,23.70
2022-08-18T13:49:03.561Z,23.70
2022-08-18T13:51:32.589Z,23.60
2022-08-18T13:56:51.648Z,23.80
2022-08-18T13:59:21.855Z,23.90
2022-08-18T14:01:52.998Z,24.10
2022-08-18T14:04:28.065Z,24.20
2022-08-18T14:06:59.929Z,24.20
2022-08-18T14:09:36.284Z,24.20
2022-08-18T14:12:15.806Z,24.10
2022-08-18T14:14:52.152Z,24.10
2022-08-18T14:17:22.367Z,24.00
2022-08-18T14:20:14.811Z,24.00
2022-08-18T14:23:01.021Z,24.00
2022-08-18T14:25:46.847Z,23.90
2022-08-18T14:28:15.582Z,24.00
2022-08-18T14:30:53.198Z,24.00
2022-08-18T14:33:34.034Z,24.10
2022-08-18T14:36:15.257Z,24.20
2022-08-18T14:38:44.122Z,24.10
2022-08-18T14:41:13.380Z,24.10
2022-08-18T14:44:00.448Z,24.00
2022-08-18T14:46:34.116Z,23.90
2022-08-18T14:49:03.902Z,23.70
2022-08-18T14:51:34.255Z,23.50
2022-08-18T14:54:03.564Z,23.40
2022-08-18T14:56:33.502Z,23.40
2022-08-18T14:59:07.987Z,23.30
2022-08-18T15:01:42.674Z,23.30
2022-08-18T15:04:19.322Z,23.30
2022-08-18T15:06:56.268Z,23.30
2022-08-18T15:09:27.149Z,23.30
2022-08-18T15:11:58.221Z,23.30
2022-08-18T15:14:32.927Z,23.30
2022-08-18T15:17:02.842Z,23.40
2022-08-18T15:19:59.103Z,23.50
2022-08-18T15:22:38.312Z,23.60
2022-08-18T15:25:24.600Z,23.70
2022-08-18T15:27:53.534Z,23.80
2022-08-18T15:30:22.366Z,23.90
2022-08-18T15:32:52.243Z,24.00
2022-08-18T15:35:21.067Z,24.10
2022-08-18T15:37:53.802Z,24.20
2022-08-18T15:40:30.621Z,24.20
2022-08-18T15:43:09.823Z,24.30
2022-08-18T15:45:58.125Z,24.40
2022-08-18T15:48:28.477Z,24.40
2022-08-18T15:50:57.881Z,24.50
2022-08-18T15:53:44.945Z,24.50
2022-08-18T15:56:15.151Z,24.60
2022-08-18T15:58:44.781Z,24.60
2022-08-18T16:01:21.129Z,24.70
2022-08-18T16:04:01.483Z,24.70
2022-08-18T16:06:32.067Z,24.80
2022-08-18T16:09:02.982Z,24.70
2022-08-18T16:11:31.305Z,24.70
2022-08-18T16:14:00.145Z,24.70
2022-08-18T16:16:36.211Z,24.70
2022-08-18T16:19:07.059Z,24.70
2022-08-18T16:21:40.490Z,24.60
2022-08-18T16:24:10.535Z,24.60
2022-08-18T16:26:39.836Z,24.60
2022-08-18T16:29:08.158Z,24.70
2022-08-18T16:31:36.646Z,24.60
2022-08-18T16:34:05.990Z,24.60
2022-08-18T16:36:35.050Z,24.70
2022-08-18T16:39:04.548Z,24.60
2022-08-18T16:41:36.327Z,24.50
2022-08-18T16:44:04.881Z,24.50
2022-08-18T16:46:33.538Z,24.50
2022-08-18T16:49:06.858Z,24.50
2022-08-18T16:51:36.697Z,24.50
2022-08-18T16:54:06.260Z,24.40
2022-08-18T16:56:37.041Z,24.50
2022-08-18T16:59:22.604Z,24.40
2022-08-18T17:02:08.656Z,24.50
2022-08-18T17:04:37.128Z,24.40
2022-08-18T17:07:06.451Z,24.40
2022-08-18T17:09:35.171Z,24.30
2022-08-18T17:12:06.363Z,24.30
2022-08-18T17:14:35.161Z,24.40
2022-08-18T17:17:04.000Z,24.40
2022-08-18T17:19:34.573Z,24.30
2022-08-18T17:22:03.325Z,24.20
2022-08-18T17:24:32.728Z,24.10
2022-08-18T17:27:26.400Z,24.20
2022-08-18T17:30:00.673Z,24.20
2022-08-18T17:32:31.886Z,24.20
2022-08-18T17:35:03.983Z,24.20
2022-08-18T17:37:32.522Z,24.20
2022-08-18T17:40:04.665Z,24.30
2022-08-18T17:42:52.938Z,24.20
2022-08-18T17:45:23.939Z,24.30
2022-08-18T17:47:55.667Z,24.30
2022-08-18T17:50:43.147Z,24.30
2022-08-18T17:53:12.188Z,24.20
2022-08-18T17:55:42.777Z,24.20
2022-08-18T17:58:14.888Z,24.20
2022-08-18T18:00:46.708Z,24.10
2022-08-18T18:03:15.158Z,24.10
2022-08-18T18:05:44.598Z,24.10
2022-08-18T18:08:12.859Z,24.10
2022-08-18T18:11:02.392Z,24.10
2022-08-18T18:13:32.824Z,24.10
2022-08-18T18:16:03.570Z,24.10
2022-08-18T18:18:35.459Z,24.00
2022-08-18T18:21:07.798Z,24.00
2022-08-18T18:23:41.240Z,23.90
2022-08-18T18:26:28.560Z,23.90
2022-08-18T18:29:13.869Z,23.90
2022-08-18T18:31:45.598Z,23.90
2022-08-18T18:34:23.357Z,23.90
2022-08-18T18:36:56.939Z,23.90
2022-08-18T18:39:33.872Z,23.80
2022-08-18T18:42:18.130Z,23.90
2022-08-18T18:44:54.020Z,23.90
2022-08-18T18:47:35.091Z,23.90
2022-08-18T18:50:06.459Z,23.80
2022-08-18T18:52:41.621Z,23.80
2022-08-18T18:55:15.880Z,23.80
2022-08-18T18:57:52.386Z,23.90
2022-08-18T19:00:25.470Z,23.80
2022-08-18T19:03:00.190Z,23.70
2022-08-18T19:05:30.921Z,23.70
2022-08-18T19:08:08.380Z,23.60
2022-08-18T19:10:38.821Z,23.50
2022-08-18T19:13:11.730Z,23.60
2022-08-18T19:15:56.990Z,23.50
2022-08-18T19:18:33.610Z,23.50
2022-08-18T19:22:04.524Z,23.50
2022-08-18T19:23:58.343Z,23.40
2022-08-18T19:26:29.939Z,23.50
2022-08-18T19:29:12.755Z,23.50
2022-08-18T19:31:44.464Z,23.40
2022-08-18T19:34:16.930Z,23.50
2022-08-18T19:36:48.332Z,23.50
2022-08-18T19:39:19.854Z,23.50
2022-08-18T19:41:50.936Z,23.50
2022-08-18T19:44:29.491Z,23.40
2022-08-18T19:47:01.961Z,23.30
2022-08-18T19:49:35.170Z,23.30
2022-08-18T19:52:43.031Z,23.20
2022-08-18T19:55:01.982Z,23.10
2022-08-18T19:57:37.970Z,23.10
2022-08-18T20:00:20.655Z,23.00
2022-08-18T20:03:04.107Z,22.90
2022-08-18T20:05:40.664Z,22.90
2022-08-18T20:08:25.933Z,22.90
2022-08-18T20:11:11.541Z,22.90
2022-08-18T20:13:43.409Z,22.90
2022-08-18T20:16:33.118Z,22.80
2022-08-18T20:19:31.265Z,22.70
2022-08-18T20:22:04.215Z,22.70
2022-08-18T20:24:50.005Z,22.60
2022-08-18T20:27:34.144Z,22.50
2022-08-18T20:30:31.364Z,22.40
2022-08-18T20:33:12.218Z,22.20
2022-08-18T20:35:46.816Z,22.00
2022-08-18T20:38:19.746Z,21.90
2022-08-18T20:40:49.629Z,21.70
2022-08-18T20:43:28.734Z,21.50
2022-08-18T20:46:01.305Z,21.40
2022-08-18T20:48:34.312Z,21.20
2022-08-18T20:51:05.060Z,21.10
2022-08-18T20:53:50.321Z,21.10
2022-08-18T20:56:32.230Z,21.10
2022-08-18T20:59:14.001Z,21.30
2022-08-18T21:01:42.566Z,21.30
2022-08-18T21:04:10.902Z,21.30
2022-08-18T21:06:42.838Z,21.30
2022-08-18T21:09:18.025Z,21.30
2022-08-18T21:11:49.001Z,21.30
2022-08-18T21:14:25.520Z,21.40
2022-08-18T21:16:59.275Z,21.40
2022-08-18T21:19:28.641Z,21.30
2022-08-18T21:21:59.570Z,21.30
2022-08-18T21:24:32.364Z,21.20
2022-08-18T21:27:05.581Z,21.20
2022-08-18T21:29:47.404Z,21.10
2022-08-18T21:32:19.781Z,21.10
2022-08-18T21:34:48.121Z,21.10
2022-08-18T21:37:18.314Z,21.10
2022-08-18T21:39:55.392Z,21.10
2022-08-18T21:42:26.290Z,21.00
2022-08-18T21:44:56.361Z,21.00
2022-08-18T21:47:30.127Z,21.00
2022-08-18T21:49:59.516Z,21.00
2022-08-18T21:52:29.687Z,20.90
2022-08-18T21:55:02.454Z,20.80
2022-08-18T21:57:47.885Z,20.80
2022-08-18T22:00:20.111Z,20.80
2022-08-18T22:02:52.431Z,20.80
2022-08-18T22:05:27.902Z,20.70
2022-08-18T22:07:56.311Z,20.70
2022-08-18T22:10:46.464Z,20.80
2022-08-18T22:13:36.941Z,20.80
2022-08-18T22:16:23.115Z,20.70
2022-08-18T22:18:51.571Z,20.70
2022-08-18T22:21:37.305Z,20.70
2022-08-18T22:24:21.770Z,20.70
2022-08-18T22:27:04.601Z,20.70
2022-08-18T22:29:34.193Z,20.70
2022-08-18T22:32:03.613Z,20.70
2022-08-18T22:34:34.457Z,20.70
2022-08-18T22:37:04.521Z,20.70
2022-08-18T22:39:36.919Z,20.70
2022-08-18T22:42:07.649Z,20.70
2022-08-18T22:44:37.261Z,20.70
2022-08-18T22:47:06.083Z,20.80
2022-08-18T22:49:37.382Z,20.70
2022-08-18T22:52:07.489Z,20.70
2022-08-18T22:54:36.229Z,20.70
2022-08-18T22:57:08.554Z,20.80
2022-08-18T22:59:36.975Z,20.80
2022-08-18T23:02:11.504Z,20.70
2022-08-18T23:04:39.822Z,20.70
2022-08-18T23:07:08.124Z,20.70
2022-08-18T23:09:38.569Z,20.70
2022-08-18T23:12:10.667Z,20.70
2022-08-18T23:14:39.559Z,20.80
2022-08-18T23:17:07.899Z,20.80
2022-08-18T23:19:36.219Z,20.80
2022-08-18T23:22:06.169Z,20.70
2022-08-18T23:24:34.448Z,20.60
2022-08-18T23:27:06.498Z,20.60
2022-08-18T23:29:36.889Z,20.60
2022-08-18T23:32:07.089Z,20.50
2022-08-18T23:34:37.109Z,20.50
2022-08-18T23:37:07.359Z,20.50
2022-08-18T23:39:36.573Z,20.50
2022-08-18T23:42:06.478Z,20.50
2022-08-18T23:44:36.329Z,20.50
2022-08-18T23:47:06.169Z,20.40
2022-08-18T23:49:36.699Z,20.40
2022-08-18T23:52:05.842Z,20.40
2022-08-18T23:54:35.681Z,20.40
2022-08-18T23:57:05.199Z,20.50
2022-08-18T23:59:33.480Z,20.50
